• Join FlightAware (Why Join?)
  • Login
  • US Flag 
12:55PM EDT


 

Airport Tracker/Info


-or-


 

Live Flight TrackerFlight Track Log ✈ EJA831 ✈ 01-Nov-2013 ✈ KOWB - KMEM

Flight Track Log - Related Links

Times and Time Zones

All times are in EDT time to prevent confusion due to time zone crossing. See the EJA831 flight status page for this flight to view local times or setup timezone preferences in your user account.

Time Position Orientation Groundspeed Altitude Reporting Facility
EDT Latitude Longitude Course Direction KTS MPH feet Rate Location/Type
11:37AM 37.6636 -87.2106 226° Southwest 191 220 9,200  Level Indianapolis Center
11:38AM 37.6161 -87.2614 220° Southwest 215 247 13,800 3,000 Climbing Indianapolis Center
11:39AM 37.5614 -87.3239 222° Southwest 274 315 15,500 1,740 Climbing Indianapolis Center
11:40AM 37.4964 -87.3944 221° Southwest 302 348 17,500 1,740 Climbing Indianapolis Center
11:41AM 37.4333 -87.4988 218° Southwest  Level Estimated
11:41AM 37.4267 -87.4644 219° Southwest 315 362 19,100  Level Indianapolis Center
11:42AM 37.3467 -87.5472 219° Southwest 317 365 19,100 180 Level Indianapolis Center
11:43AM 37.2664 -87.6281 219° Southwest 323 372 19,600 1,440 Climbing Memphis Center
11:44AM 37.1972 -87.6983 219° Southwest 323 372 22,300 2,160 Climbing Memphis Center
11:45AM 37.1297 -87.7656 218° Southwest 323 372 24,000 840 Climbing Memphis Center
11:46AM 37.0686 -87.8272 219° Southwest 323 372 24,000  Level Memphis Center
11:47AM 36.9950 -87.8972 217° Southwest 323 372 24,000  Level Memphis Center
11:48AM 36.9297 -87.9667 220° Southwest 323 372 24,000  Level Memphis Center
11:49AM 36.8581 -88.0361 218° Southwest 323 372 24,000  Level Memphis Center
11:50AM 36.7883 -88.1056 219° Southwest 323 372 24,000  Level Memphis Center
11:51AM 36.7208 -88.1747 219° Southwest 323 372 24,000  Level Memphis Center
11:52AM 36.6492 -88.2414 217° Southwest 323 372 24,000  Level Memphis Center
11:53AM 36.5878 -88.3050 220° Southwest 311 358 24,000  Level Memphis Center
11:54AM 36.5200 -88.3714 218° Southwest 311 358 24,000  Level Memphis Center
11:55AM 36.4542 -88.4347 218° Southwest 311 358 24,000  Level Memphis Center
11:56AM 36.3886 -88.4983 218° Southwest 311 358 24,000  Level Memphis Center
11:57AM 36.3228 -88.5642 219° Southwest 311 358 24,000  Level Memphis Center
11:58AM 36.2569 -88.6300 219° Southwest 311 358 24,000  Level Memphis Center
11:59AM 36.1850 -88.7008 218° Southwest 311 358 24,000  Level Memphis Center
12:00PM 36.1192 -88.7639 218° Southwest 311 358 24,000  Level Memphis Center
12:01PM 36.0469 -88.8294 216° Southwest 316 364 24,000  Level Memphis Center
12:02PM 35.9769 -88.9000 219° Southwest 322 371 24,000  Level Memphis Center
12:03PM 35.9069 -88.9681 218° Southwest 322 371 24,000 -60 Level Memphis Center
12:04PM 35.8367 -89.0358 218° Southwest 322 371 23,900 -900 Descending Memphis Center
12:05PM 35.7686 -89.1033 219° Southwest 322 371 22,300 -1,680 Descending Memphis Center
12:06PM 35.6961 -89.1683 216° Southwest 322 371 20,600 -1,620 Descending Memphis Center
12:07PM 35.6342 -89.2331 220° Southwest 307 353 19,100 -1,980 Descending Memphis Center
12:08PM 35.5661 -89.3003 219° Southwest 307 353 16,700 -2,700 Descending Memphis Center
12:09PM 35.4997 -89.3700 221° Southwest 313 360 13,700 -3,060 Descending Memphis Center
12:10PM 35.4419 -89.4422 226° Southwest 313 360 10,600 -2,700 Descending Memphis Center
12:11PM 35.3672 -89.4861 206° Southwest 305 351 8,300 -2,280 Descending Memphis Center
12:12PM 35.3008 -89.5278 207° Southwest 277 319 6,100 -1,920 Descending Memphis Center
12:13PM 35.2406 -89.5792 215° Southwest 277 319 4,500 -1,200 Descending Memphis Center
12:14PM 35.1803 -89.6281 214° Southwest 272 313 3,700 -780 Descending Memphis Center
12:15PM 35.1222 -89.6767 214° Southwest 259 298 3,000 -360 Descending Memphis Center
12:16PM 35.0747 -89.7356 225° Southwest 253 291 3,000 -60 Level Memphis Center
12:17PM 35.0561 -89.8014 251° West 237 273 2,900 -600 Descending Memphis Center
12:18PM 35.0583 -89.8572 273° West 184 212 1,900 -900 Descending Memphis Center
12:19PM 35.0586 -89.9006 270° West 165 190 1,200 -720 Descending Memphis Center
12:20PM 35.0589 -89.9436 270° West 143 165 500 -720 Descending Memphis Center
12:22PM 35.0424 -89.9767 342° North  Level Estimated
12:29PM 35.0424 -89.9767 345° North  Level Estimated